createdAt,value
2022-08-26T00:02:13.783Z,4.75
2022-08-26T00:04:43.509Z,5.65
2022-08-26T00:07:11.584Z,5.78
2022-08-26T00:09:40.528Z,5.55
2022-08-26T00:12:12.279Z,5.10
2022-08-26T00:14:42.145Z,4.70
2022-08-26T00:17:12.021Z,3.50
2022-08-26T00:19:40.191Z,2.33
2022-08-26T00:22:08.607Z,2.15
2022-08-26T00:24:36.817Z,1.73
2022-08-26T00:27:06.332Z,1.77
2022-08-26T00:29:37.659Z,1.40
2022-08-26T00:32:06.709Z,1.67
2022-08-26T00:34:36.392Z,1.55
2022-08-26T00:37:09.830Z,2.17
2022-08-26T00:39:41.087Z,2.75
2022-08-26T00:42:09.104Z,1.33
2022-08-26T00:44:37.205Z,1.05
2022-08-26T00:47:08.968Z,1.88
2022-08-26T00:49:42.260Z,1.13
2022-08-26T00:52:14.680Z,1.70
2022-08-26T00:54:47.211Z,1.33
2022-08-26T00:57:19.723Z,0.85
2022-08-26T00:59:52.363Z,1.05
2022-08-26T01:02:21.076Z,1.35
2022-08-26T01:04:55.867Z,1.55
2022-08-26T01:07:27.568Z,1.15
2022-08-26T01:09:59.718Z,1.77
2022-08-26T01:12:30.442Z,2.22
2022-08-26T01:14:58.567Z,1.55
2022-08-26T01:17:26.874Z,1.38
2022-08-26T01:20:03.689Z,1.33
2022-08-26T01:22:34.283Z,1.38
2022-08-26T01:25:05.616Z,1.52
2022-08-26T01:27:35.413Z,1.35
2022-08-26T01:30:06.428Z,1.15
2022-08-26T01:32:36.342Z,0.98
2022-08-26T01:35:08.795Z,1.10
2022-08-26T01:37:40.383Z,1.42
2022-08-26T01:40:16.932Z,1.63
2022-08-26T01:42:46.852Z,1.58
2022-08-26T01:45:19.674Z,1.20
2022-08-26T01:47:50.087Z,1.67
2022-08-26T01:50:30.250Z,2.30
2022-08-26T01:53:04.745Z,1.50
2022-08-26T01:55:35.523Z,1.98
2022-08-26T01:58:13.946Z,1.58
2022-08-26T02:00:44.076Z,1.23
2022-08-26T02:03:18.573Z,1.40
2022-08-26T02:05:51.267Z,1.10
2022-08-26T02:08:25.338Z,1.77
2022-08-26T02:10:55.974Z,1.35
2022-08-26T02:13:27.546Z,0.93
2022-08-26T02:15:58.546Z,1.48
2022-08-26T02:18:27.460Z,1.73
2022-08-26T02:20:57.384Z,1.17
2022-08-26T02:23:25.766Z,1.42
2022-08-26T02:26:01.721Z,1.80
2022-08-26T02:28:36.819Z,1.58
2022-08-26T02:31:05.094Z,0.93
2022-08-26T02:33:33.289Z,1.40
2022-08-26T02:36:04.246Z,1.92
2022-08-26T02:38:32.666Z,1.13
2022-08-26T02:41:03.302Z,1.42
2022-08-26T02:43:32.948Z,1.00
2022-08-26T02:46:02.301Z,1.35
2022-08-26T02:48:32.017Z,0.70
2022-08-26T02:51:01.727Z,1.48
2022-08-26T02:53:32.093Z,1.10
2022-08-26T02:56:05.488Z,1.50
2022-08-26T02:58:33.619Z,1.38
2022-08-26T03:01:02.399Z,1.17
2022-08-26T03:03:33.754Z,1.38
2022-08-26T03:06:02.105Z,1.45
2022-08-26T03:08:30.135Z,2.00
2022-08-26T03:10:59.254Z,1.10
2022-08-26T03:13:31.727Z,1.73
2022-08-26T03:16:02.645Z,1.17
2022-08-26T03:18:30.697Z,1.17
2022-08-26T03:20:59.075Z,1.88
2022-08-26T03:23:27.203Z,1.90
2022-08-26T03:25:56.818Z,1.23
2022-08-26T03:28:27.168Z,1.02
2022-08-26T03:30:58.064Z,0.73
2022-08-26T03:33:27.483Z,1.98
2022-08-26T03:35:56.749Z,1.30
2022-08-26T03:38:26.183Z,1.17
2022-08-26T03:40:56.321Z,1.55
2022-08-26T03:43:26.826Z,1.02
2022-08-26T03:45:56.380Z,1.83
2022-08-26T03:48:25.542Z,0.55
2022-08-26T03:50:53.687Z,0.73
2022-08-26T03:53:21.754Z,1.88
2022-08-26T03:55:52.012Z,1.52
2022-08-26T03:58:20.933Z,1.58
2022-08-26T04:00:49.505Z,1.15
2022-08-26T04:03:38.938Z,1.35
2022-08-26T04:06:08.126Z,0.77
2022-08-26T04:08:37.670Z,0.75
2022-08-26T04:11:07.162Z,2.05
2022-08-26T04:13:35.317Z,1.70
2022-08-26T04:16:03.566Z,1.55
2022-08-26T04:18:37.067Z,2.13
2022-08-26T04:21:07.851Z,0.93
2022-08-26T04:23:47.242Z,1.67
2022-08-26T04:26:18.511Z,1.70
2022-08-26T04:28:47.309Z,1.27
2022-08-26T04:31:16.927Z,1.45
2022-08-26T04:33:49.690Z,1.25
2022-08-26T04:36:20.181Z,1.40
2022-08-26T04:38:50.735Z,1.73
2022-08-26T04:41:20.555Z,2.25
2022-08-26T04:43:48.941Z,1.05
2022-08-26T04:46:22.016Z,1.15
2022-08-26T04:48:52.378Z,1.35
2022-08-26T04:51:28.025Z,1.25
2022-08-26T04:53:57.199Z,0.85
2022-08-26T04:56:26.327Z,1.60
2022-08-26T04:58:54.442Z,1.50
2022-08-26T05:01:23.904Z,1.20
2022-08-26T05:03:54.842Z,1.55
2022-08-26T05:06:23.014Z,1.13
2022-08-26T05:08:51.630Z,2.33
2022-08-26T05:11:22.056Z,0.88
2022-08-26T05:13:50.966Z,1.40
2022-08-26T05:16:19.467Z,1.25
2022-08-26T05:18:48.465Z,1.88
2022-08-26T05:21:23.430Z,1.52
2022-08-26T05:23:52.418Z,1.17
2022-08-26T05:26:22.883Z,1.92
2022-08-26T05:28:51.615Z,1.92
2022-08-26T05:31:26.321Z,1.50
2022-08-26T05:33:54.937Z,0.93
2022-08-26T05:36:26.923Z,1.80
2022-08-26T05:38:55.540Z,1.00
2022-08-26T05:41:34.425Z,2.42
2022-08-26T05:44:07.400Z,2.15
2022-08-26T05:46:36.676Z,1.13
2022-08-26T05:49:05.858Z,1.63
2022-08-26T05:51:36.217Z,1.52
2022-08-26T05:54:06.654Z,1.05
2022-08-26T05:56:34.766Z,1.67
2022-08-26T05:59:03.122Z,1.55
2022-08-26T06:01:35.455Z,1.17
2022-08-26T06:04:04.754Z,2.30
2022-08-26T06:06:36.780Z,1.58
2022-08-26T06:09:10.933Z,2.50
2022-08-26T06:11:40.250Z,1.80
2022-08-26T06:14:09.491Z,1.42
2022-08-26T06:16:40.934Z,1.40
2022-08-26T06:19:11.698Z,1.60
2022-08-26T06:21:42.835Z,2.28
2022-08-26T06:24:31.731Z,1.55
2022-08-26T06:27:02.224Z,1.73
2022-08-26T06:29:33.578Z,2.00
2022-08-26T06:32:02.731Z,1.70
2022-08-26T06:34:31.111Z,1.58
2022-08-26T06:37:03.486Z,1.80
2022-08-26T06:39:32.307Z,1.65
2022-08-26T06:42:01.187Z,1.83
2022-08-26T06:44:32.423Z,1.58
2022-08-26T06:47:00.520Z,2.50
2022-08-26T06:49:28.696Z,1.83
2022-08-26T06:51:58.945Z,1.10
2022-08-26T06:54:31.697Z,2.35
2022-08-26T06:57:00.577Z,1.95
2022-08-26T06:59:28.708Z,2.20
2022-08-26T07:01:57.679Z,6.18
2022-08-26T07:04:27.928Z,6.22
2022-08-26T07:06:56.684Z,5.82
2022-08-26T07:09:30.427Z,6.90
2022-08-26T07:11:58.822Z,6.90
2022-08-26T07:14:27.583Z,7.45
2022-08-26T07:16:56.465Z,7.88
2022-08-26T07:19:31.091Z,8.18
2022-08-26T07:22:02.054Z,7.82
2022-08-26T07:24:32.344Z,10.00
2022-08-26T07:27:02.683Z,9.55
2022-08-26T07:29:31.180Z,10.77
2022-08-26T07:31:59.713Z,10.02
2022-08-26T07:34:28.085Z,11.05
2022-08-26T07:36:56.905Z,12.65
2022-08-26T07:39:26.669Z,12.30
2022-08-26T07:41:56.571Z,13.32
2022-08-26T07:44:27.233Z,14.25
2022-08-26T07:46:55.511Z,14.88
2022-08-26T07:49:26.872Z,13.88
2022-08-26T07:51:57.186Z,14.00
2022-08-26T07:54:27.130Z,14.57
2022-08-26T07:56:57.587Z,13.90
2022-08-26T07:59:26.367Z,14.95
2022-08-26T08:01:54.562Z,16.27
2022-08-26T08:04:26.547Z,16.80
2022-08-26T08:06:55.781Z,17.02
2022-08-26T08:09:24.913Z,16.65
2022-08-26T08:11:53.958Z,19.35
2022-08-26T08:14:23.724Z,22.50
2022-08-26T08:16:54.740Z,30.38
2022-08-26T08:19:23.836Z,33.95
2022-08-26T08:21:53.671Z,40.38
2022-08-26T08:24:23.050Z,46.40
2022-08-26T08:26:51.640Z,48.70
2022-08-26T08:29:19.797Z,50.10
2022-08-26T08:31:58.357Z,51.33
2022-08-26T08:34:28.634Z,54.28
2022-08-26T08:36:57.573Z,53.17
2022-08-26T08:39:26.307Z,56.30
2022-08-26T08:42:16.116Z,58.70
2022-08-26T08:44:51.973Z,56.92
2022-08-26T08:47:26.902Z,60.17
2022-08-26T08:50:00.385Z,59.50
2022-08-26T08:52:31.991Z,58.40
2022-08-26T08:55:00.343Z,55.70
2022-08-26T08:57:39.641Z,59.30
2022-08-26T09:00:12.268Z,58.92
2022-08-26T09:02:53.549Z,62.05
2022-08-26T09:05:24.360Z,56.53
2022-08-26T09:07:58.502Z,59.40
2022-08-26T09:10:37.030Z,59.10
2022-08-26T09:13:09.357Z,58.13
2022-08-26T09:15:51.299Z,60.35
2022-08-26T09:18:32.769Z,60.03
2022-08-26T09:21:03.381Z,59.17
2022-08-26T09:23:34.107Z,62.00
2022-08-26T09:26:15.314Z,60.40
2022-08-26T09:28:48.084Z,56.05
2022-08-26T09:31:23.694Z,58.40
2022-08-26T09:34:11.387Z,59.35
2022-08-26T09:36:42.671Z,63.15
2022-08-26T09:39:27.403Z,61.20
2022-08-26T09:42:07.116Z,65.82
2022-08-26T09:44:36.914Z,63.17
2022-08-26T09:47:07.242Z,60.78
2022-08-26T09:49:39.255Z,61.40
2022-08-26T09:52:16.902Z,61.22
2022-08-26T09:54:46.160Z,59.70
2022-08-26T09:57:23.071Z,67.18
2022-08-26T09:59:51.225Z,64.68
2022-08-26T10:02:39.317Z,61.55
2022-08-26T10:05:15.929Z,61.88
2022-08-26T10:07:47.368Z,63.00
2022-08-26T10:10:21.373Z,65.57
2022-08-26T10:13:00.171Z,59.00
2022-08-26T10:15:29.746Z,57.03
2022-08-26T10:18:08.223Z,56.78
2022-08-26T10:20:50.386Z,57.05
2022-08-26T10:23:21.397Z,57.75
2022-08-26T10:25:58.951Z,55.80
2022-08-26T10:28:36.740Z,54.88
2022-08-26T10:31:09.780Z,55.67
2022-08-26T10:33:39.805Z,57.75
2022-08-26T10:36:39.272Z,55.47
2022-08-26T10:39:22.412Z,57.95
2022-08-26T10:41:56.400Z,57.83
2022-08-26T10:44:26.379Z,58.03
2022-08-26T10:46:59.061Z,57.60
2022-08-26T10:49:29.219Z,57.70
2022-08-26T10:52:04.772Z,57.35
2022-08-26T10:54:47.591Z,57.78
2022-08-26T10:57:24.692Z,58.55
2022-08-26T11:00:01.432Z,56.30
2022-08-26T11:02:47.454Z,59.15
2022-08-26T11:05:20.328Z,54.65
2022-08-26T11:07:52.722Z,55.55
2022-08-26T11:10:55.321Z,56.33
2022-08-26T11:14:04.765Z,57.53
2022-08-26T11:16:43.491Z,57.63
2022-08-26T11:19:58.864Z,56.28
2022-08-26T11:22:27.061Z,55.75
2022-08-26T11:25:06.589Z,53.90
2022-08-26T11:28:06.243Z,54.20
2022-08-26T11:30:56.802Z,52.85
2022-08-26T11:34:00.133Z,51.33
2022-08-26T11:36:45.551Z,50.13
2022-08-26T11:39:25.407Z,53.13
2022-08-26T11:41:59.818Z,51.38
2022-08-26T11:44:36.964Z,49.83
2022-08-26T11:47:11.562Z,53.60
2022-08-26T11:49:41.797Z,55.25
2022-08-26T11:52:13.617Z,57.22
2022-08-26T11:54:42.304Z,57.13
2022-08-26T11:57:14.642Z,58.28
2022-08-26T11:59:43.544Z,57.38
2022-08-26T12:02:21.120Z,63.03
2022-08-26T12:04:51.795Z,61.50
2022-08-26T12:07:25.170Z,58.40
2022-08-26T12:09:57.201Z,56.53
2022-08-26T12:12:34.710Z,59.10
2022-08-26T12:15:10.178Z,58.88
2022-08-26T12:17:39.960Z,59.47
2022-08-26T12:20:20.918Z,60.33
2022-08-26T12:22:49.104Z,56.90
2022-08-26T12:25:24.842Z,57.35
2022-08-26T12:27:54.993Z,58.65
2022-08-26T12:30:26.197Z,58.17
2022-08-26T12:33:14.157Z,60.60
2022-08-26T12:35:54.961Z,57.65
2022-08-26T12:38:25.992Z,57.55
2022-08-26T12:40:56.989Z,58.67
2022-08-26T12:43:44.314Z,57.55
2022-08-26T12:46:15.374Z,59.83
2022-08-26T12:48:45.804Z,59.28
2022-08-26T12:51:43.973Z,63.45
2022-08-26T12:54:16.007Z,64.72
2022-08-26T12:56:44.309Z,66.38
2022-08-26T12:59:25.188Z,65.45
2022-08-26T13:01:54.752Z,61.75
2022-08-26T13:04:38.540Z,61.25
2022-08-26T13:07:24.810Z,61.00
2022-08-26T13:09:54.566Z,60.17
2022-08-26T13:12:28.545Z,55.25
2022-08-26T13:15:01.013Z,55.78
2022-08-26T13:17:30.519Z,55.70
2022-08-26T13:20:04.044Z,53.65
2022-08-26T13:22:32.963Z,52.60
2022-08-26T13:25:01.084Z,55.10
2022-08-26T13:27:29.354Z,53.58
2022-08-26T13:30:01.726Z,54.55
2022-08-26T13:32:30.124Z,52.90
2022-08-26T13:34:58.839Z,51.83
2022-08-26T13:37:35.132Z,54.38
2022-08-26T13:40:05.993Z,52.55
2022-08-26T13:42:34.754Z,54.67
2022-08-26T13:45:06.537Z,56.63
2022-08-26T13:47:34.641Z,54.33
2022-08-26T13:50:02.897Z,52.58
2022-08-26T13:52:31.282Z,56.05
2022-08-26T13:55:00.190Z,53.95
2022-08-26T13:57:30.038Z,54.47
2022-08-26T13:59:59.476Z,56.15
2022-08-26T14:02:30.604Z,53.00
2022-08-26T14:04:58.651Z,56.70
2022-08-26T14:07:26.955Z,52.85
2022-08-26T14:09:55.182Z,58.55
2022-08-26T14:12:23.238Z,54.30
2022-08-26T14:14:51.310Z,58.50
2022-08-26T14:17:22.459Z,51.55
2022-08-26T14:19:52.512Z,55.53
2022-08-26T14:22:23.193Z,54.05
2022-08-26T14:24:51.587Z,58.75
2022-08-26T14:27:19.686Z,57.15
2022-08-26T14:29:47.934Z,56.53
2022-08-26T14:32:23.369Z,56.67
2022-08-26T14:34:52.896Z,57.50
2022-08-26T14:37:21.346Z,55.33
2022-08-26T14:39:49.817Z,61.85
2022-08-26T14:42:25.811Z,55.95
2022-08-26T14:45:02.511Z,57.58
2022-08-26T14:47:30.721Z,56.17
2022-08-26T14:50:00.316Z,60.20
2022-08-26T14:52:29.689Z,55.30
2022-08-26T14:54:56.784Z,55.67
2022-08-26T14:57:24.854Z,54.60
2022-08-26T14:59:53.165Z,55.58
2022-08-26T15:02:32.930Z,56.10
2022-08-26T15:05:04.055Z,53.47
2022-08-26T15:07:32.630Z,55.13
2022-08-26T15:10:00.771Z,55.58
2022-08-26T15:12:28.891Z,56.40
2022-08-26T15:14:56.917Z,55.38
2022-08-26T15:17:26.193Z,51.95
2022-08-26T15:19:54.457Z,56.30
2022-08-26T15:22:24.288Z,55.88
2022-08-26T15:24:58.706Z,59.80
2022-08-26T15:27:26.884Z,52.85
2022-08-26T15:29:55.156Z,52.88
2022-08-26T15:32:23.259Z,55.72
2022-08-26T15:34:53.039Z,53.20
2022-08-26T15:37:21.085Z,58.33
2022-08-26T15:39:52.106Z,54.42
2022-08-26T15:42:21.524Z,55.60
2022-08-26T15:44:49.922Z,53.13
2022-08-26T15:47:18.418Z,53.92
2022-08-26T15:49:46.586Z,53.90
2022-08-26T15:52:16.745Z,53.88
2022-08-26T15:54:44.848Z,53.80
2022-08-26T15:57:16.449Z,53.85
2022-08-26T15:59:47.229Z,54.03
2022-08-26T16:02:15.419Z,53.88
2022-08-26T16:04:43.636Z,54.40
2022-08-26T16:07:12.668Z,55.88
2022-08-26T16:09:40.854Z,55.78
2022-08-26T16:12:09.341Z,55.97
2022-08-26T16:14:38.998Z,54.88
2022-08-26T16:17:07.241Z,57.10
2022-08-26T16:19:35.273Z,57.28
2022-08-26T16:22:03.526Z,55.20
2022-08-26T16:24:31.577Z,54.95
2022-08-26T16:26:59.703Z,55.33
2022-08-26T16:29:27.910Z,55.40
2022-08-26T16:31:57.331Z,54.38
2022-08-26T16:34:25.583Z,55.35
2022-08-26T16:36:53.906Z,55.72
2022-08-26T16:39:22.037Z,55.35
2022-08-26T16:41:50.297Z,54.95
2022-08-26T16:44:19.068Z,55.30
2022-08-26T16:46:47.212Z,55.97
2022-08-26T16:49:16.795Z,57.58
2022-08-26T16:51:46.988Z,54.75
2022-08-26T16:54:15.085Z,52.85
2022-08-26T16:56:43.260Z,53.13
2022-08-26T16:59:12.204Z,53.88
2022-08-26T17:01:40.391Z,18.13
2022-08-26T17:04:08.629Z,18.08
2022-08-26T17:06:38.234Z,18.35
2022-08-26T17:09:06.567Z,17.73
2022-08-26T17:11:34.773Z,18.02
2022-08-26T17:14:02.940Z,17.25
2022-08-26T17:16:31.058Z,18.33
2022-08-26T17:19:00.089Z,17.80
2022-08-26T17:21:29.517Z,17.60
2022-08-26T17:23:59.331Z,19.25
2022-08-26T17:26:27.539Z,17.98
2022-08-26T17:28:55.748Z,18.63
2022-08-26T17:31:24.761Z,18.38
2022-08-26T17:33:54.345Z,19.08
2022-08-26T17:36:27.672Z,18.38
2022-08-26T17:38:58.879Z,18.02
2022-08-26T17:41:27.623Z,17.45
2022-08-26T17:43:56.091Z,18.45
2022-08-26T17:46:25.262Z,17.90
2022-08-26T17:48:53.647Z,17.70
2022-08-26T17:51:23.478Z,17.63
2022-08-26T17:53:52.799Z,17.38
2022-08-26T17:56:25.529Z,17.60
2022-08-26T17:58:55.048Z,18.05
2022-08-26T18:01:27.175Z,18.25
2022-08-26T18:04:00.230Z,18.95
2022-08-26T18:06:30.923Z,18.60
2022-08-26T18:08:59.660Z,18.80
2022-08-26T18:11:29.912Z,18.50
2022-08-26T18:14:01.446Z,18.50
2022-08-26T18:16:34.077Z,18.60
2022-08-26T18:19:02.189Z,18.70
2022-08-26T18:21:30.293Z,19.13
2022-08-26T18:23:58.464Z,19.00
2022-08-26T18:26:29.336Z,19.38
2022-08-26T18:28:57.894Z,19.13
2022-08-26T18:31:26.305Z,18.30
2022-08-26T18:33:54.721Z,18.40
2022-08-26T18:36:25.254Z,17.95
2022-08-26T18:38:54.585Z,18.30
2022-08-26T18:41:25.351Z,19.77
2022-08-26T18:43:55.584Z,18.75
2022-08-26T18:46:26.111Z,17.80
2022-08-26T18:48:55.877Z,18.08
2022-08-26T18:51:26.383Z,18.15
2022-08-26T18:53:54.790Z,18.30
2022-08-26T18:56:23.030Z,18.58
2022-08-26T18:58:51.197Z,18.23
2022-08-26T19:01:25.518Z,17.88
2022-08-26T19:03:56.005Z,17.83
2022-08-26T19:06:25.668Z,18.08
2022-08-26T19:08:58.182Z,17.50
2022-08-26T19:11:32.154Z,17.70
2022-08-26T19:14:03.397Z,17.48
2022-08-26T19:16:33.022Z,18.10
2022-08-26T19:19:02.052Z,19.80
2022-08-26T19:21:30.902Z,18.40
2022-08-26T19:24:00.235Z,18.15
2022-08-26T19:26:29.368Z,17.70
2022-08-26T19:28:57.872Z,17.05
2022-08-26T19:31:26.752Z,17.05
2022-08-26T19:33:58.119Z,17.95
2022-08-26T19:36:27.309Z,17.27
2022-08-26T19:38:56.533Z,18.25
2022-08-26T19:41:37.425Z,18.42
2022-08-26T19:44:08.259Z,18.85
2022-08-26T19:49:12.082Z,17.92
2022-08-26T19:51:40.185Z,18.40
2022-08-26T19:54:08.304Z,18.35
2022-08-26T19:56:36.597Z,17.85
2022-08-26T19:59:04.862Z,18.77
2022-08-26T20:01:33.118Z,17.45
2022-08-26T20:04:01.446Z,18.05
2022-08-26T20:06:30.953Z,17.38
2022-08-26T20:08:59.581Z,17.45
2022-08-26T20:11:27.898Z,19.08
2022-08-26T20:13:55.977Z,17.67
2022-08-26T20:16:24.314Z,18.35
2022-08-26T20:19:18.185Z,17.35
2022-08-26T20:21:47.859Z,17.45
2022-08-26T20:24:18.437Z,17.10
2022-08-26T20:26:47.132Z,17.25
2022-08-26T20:29:17.368Z,17.13
2022-08-26T20:31:46.593Z,16.35
2022-08-26T20:34:16.390Z,16.77
2022-08-26T20:36:49.112Z,17.08
2022-08-26T20:39:20.952Z,17.98
2022-08-26T20:41:49.588Z,18.20
2022-08-26T20:44:18.167Z,20.02
2022-08-26T20:46:46.498Z,17.52
2022-08-26T20:49:14.899Z,17.17
2022-08-26T20:51:43.746Z,17.10
2022-08-26T20:54:13.673Z,16.83
2022-08-26T20:56:42.072Z,16.98
2022-08-26T20:59:10.533Z,17.45
2022-08-26T21:01:42.313Z,16.50
2022-08-26T21:04:17.171Z,16.48
2022-08-26T21:06:49.426Z,16.17
2022-08-26T21:09:24.289Z,16.25
2022-08-26T21:11:53.443Z,15.15
2022-08-26T21:14:23.224Z,14.35
2022-08-26T21:16:54.575Z,14.57
2022-08-26T21:19:23.276Z,13.05
2022-08-26T21:21:51.405Z,13.57
2022-08-26T21:24:19.642Z,13.25
2022-08-26T21:26:49.304Z,11.27
2022-08-26T21:29:17.512Z,10.10
2022-08-26T21:31:46.770Z,8.02
2022-08-26T21:34:18.231Z,7.63
2022-08-26T21:36:46.675Z,5.95
2022-08-26T21:39:17.572Z,5.57
2022-08-26T21:41:47.236Z,5.68
2022-08-26T21:44:18.700Z,4.45
2022-08-26T21:46:47.791Z,4.38
2022-08-26T21:49:17.404Z,4.15
2022-08-26T21:51:47.825Z,3.92
2022-08-26T21:54:15.968Z,3.85
2022-08-26T21:56:47.264Z,3.78
2022-08-26T21:59:19.927Z,3.92
2022-08-26T22:01:48.523Z,4.55
2022-08-26T22:04:18.168Z,5.78
2022-08-26T22:06:48.784Z,4.70
2022-08-26T22:09:19.403Z,4.85
2022-08-26T22:11:47.859Z,4.10
2022-08-26T22:14:19.204Z,3.75
2022-08-26T22:16:50.312Z,3.85
2022-08-26T22:19:20.070Z,3.85
2022-08-26T22:21:50.119Z,4.50
2022-08-26T22:24:18.423Z,5.20
2022-08-26T22:26:46.946Z,5.95
2022-08-26T22:29:16.614Z,5.50
2022-08-26T22:31:44.759Z,5.40
2022-08-26T22:34:15.747Z,5.40
2022-08-26T22:36:46.224Z,5.18
2022-08-26T22:39:15.157Z,6.35
2022-08-26T22:41:48.554Z,6.43
2022-08-26T22:44:20.433Z,7.35
2022-08-26T22:46:49.946Z,7.30
2022-08-26T22:49:19.603Z,6.03
2022-08-26T22:51:47.823Z,6.25
2022-08-26T22:54:16.746Z,5.47
2022-08-26T22:56:46.037Z,5.85
2022-08-26T22:59:16.201Z,6.28
2022-08-26T23:01:46.855Z,5.80
2022-08-26T23:04:15.613Z,5.53
2022-08-26T23:06:47.655Z,4.63
2022-08-26T23:09:17.928Z,4.50
2022-08-26T23:11:47.421Z,2.58
2022-08-26T23:14:16.423Z,2.78
2022-08-26T23:16:47.405Z,2.80
2022-08-26T23:19:17.991Z,2.08
2022-08-26T23:21:46.221Z,4.28
2022-08-26T23:24:14.610Z,3.10
2022-08-26T23:26:44.029Z,3.25
2022-08-26T23:29:15.645Z,3.00
2022-08-26T23:31:45.565Z,2.42
2022-08-26T23:34:31.652Z,2.42
2022-08-26T23:37:00.983Z,3.15
2022-08-26T23:39:29.478Z,3.63
2022-08-26T23:41:58.163Z,4.22
2022-08-26T23:44:26.746Z,4.65
2022-08-26T23:46:56.492Z,4.93
2022-08-26T23:49:25.317Z,4.63
2022-08-26T23:52:11.796Z,4.40
2022-08-26T23:54:42.550Z,5.10
2022-08-26T23:57:11.182Z,5.70
2022-08-26T23:59:40.305Z,4.75
